In Rescue
 
Open Full Screen Window  High Contrast Mode
Wind Gusting 21 knots
12
May 19, 2019 2:00 PM EDT
Present Weather: Unknown Precipitation
Weather Information
Wind Direction
  070 °
Wind Speed
  12 kt (14 mph)
Wind Gust
  21 kt (24 mph)
Altimeter
29.67 in
Visibility
1 1/2 SM
Temperature
06° C
43° F
Dewpoint
06° C
43° F
Humidity
100%
Sky Condition
Overcast @ 300 ft
LIFR

METAR KSJX 191800Z AUTO 07012G21KT 1 1/2SM UP OVC003 06/06 A2967 RMK AO2 T00600057

FAA Disclaimer: The data displayed is for advisory purposes only and is not to be used for flight planning or operations.